createdAt,value
2022-11-15T19:16:44.613Z,24.08
2022-11-15T19:19:24.472Z,22.42
2022-11-15T19:21:54.970Z,20.13
2022-11-15T19:24:24.351Z,22.73
2022-11-15T19:55:12.670Z,19.30
2022-11-15T19:57:39.593Z,22.83
2022-11-15T20:06:30.219Z,18.65
2022-11-15T20:08:58.359Z,19.90
2022-11-15T20:11:26.000Z,18.50
2022-11-15T20:13:56.527Z,18.43
2022-11-15T20:16:23.421Z,20.02
2022-11-15T20:22:16.268Z,18.40
2022-11-15T20:24:58.162Z,21.92
2022-11-15T20:27:24.814Z,17.42
2022-11-15T20:29:53.797Z,19.00
2022-11-15T20:35:59.086Z,19.42
2022-11-15T20:38:29.592Z,20.10
2022-11-15T20:41:00.044Z,20.40
2022-11-15T20:43:26.977Z,20.50
2022-11-15T20:45:53.497Z,24.17
2022-11-15T20:48:19.970Z,20.88
2022-11-15T20:50:47.223Z,20.17
2022-11-15T20:53:15.557Z,20.63
2022-11-15T20:55:43.147Z,22.17
2022-11-15T20:58:10.469Z,19.80
2022-11-15T21:01:06.935Z,23.65
2022-11-15T21:03:36.802Z,18.77
2022-11-15T21:06:03.629Z,20.95
2022-11-15T21:08:50.127Z,23.58
2022-11-15T21:11:34.957Z,19.63
2022-11-15T21:14:06.313Z,19.75
2022-11-15T21:16:35.384Z,21.13
2022-11-15T21:19:01.874Z,17.55
2022-11-15T21:21:28.283Z,17.98
2022-11-15T21:23:54.808Z,16.65
2022-11-15T21:26:21.295Z,19.10
2022-11-15T21:28:47.803Z,19.67
2022-11-15T21:31:14.388Z,17.42
2022-11-15T21:33:40.895Z,20.38
2022-11-15T21:36:07.674Z,20.50
2022-11-15T21:39:01.331Z,22.13
2022-11-15T21:41:27.950Z,20.02
2022-11-15T21:43:57.510Z,19.90
2022-11-15T21:46:30.735Z,18.75
2022-11-15T21:48:57.937Z,19.52
2022-11-15T21:51:26.985Z,20.30
2022-11-15T21:57:32.605Z,19.33
2022-11-15T22:00:18.575Z,18.48
2022-11-15T22:02:45.066Z,22.55
2022-11-15T22:05:11.546Z,21.85
2022-11-15T22:07:38.100Z,19.75
2022-11-15T22:10:04.843Z,20.00
2022-11-15T22:12:31.343Z,22.83
2022-11-15T22:14:57.861Z,22.52
2022-11-15T22:17:48.935Z,19.63
2022-11-15T22:20:43.055Z,25.75
2022-11-15T22:23:05.022Z,29.00
2022-11-15T22:25:37.449Z,31.15
2022-11-15T22:28:04.053Z,33.90
2022-11-15T22:30:30.606Z,32.10
2022-11-15T22:32:57.112Z,36.38
2022-11-15T22:35:23.668Z,33.35
2022-11-15T22:37:50.167Z,33.67
2022-11-15T22:40:16.901Z,31.50
2022-11-15T22:43:19.272Z,32.13
2022-11-15T22:45:48.925Z,34.60
2022-11-15T22:48:15.829Z,33.55
2022-11-15T22:50:47.813Z,33.72
2022-11-15T22:53:14.369Z,34.63
2022-11-15T22:55:41.570Z,32.90
2022-11-15T22:58:11.006Z,39.08
2022-11-15T23:00:37.545Z,33.03
2022-11-15T23:03:04.189Z,36.00
2022-11-15T23:05:30.744Z,31.75
2022-11-15T23:08:00.530Z,34.65
2022-11-15T23:10:45.889Z,37.58
2022-11-15T23:13:15.999Z,35.05
2022-11-15T23:16:05.598Z,34.97
2022-11-15T23:18:39.078Z,34.63
2022-11-15T23:21:15.817Z,40.40
2022-11-15T23:23:42.337Z,33.92
2022-11-15T23:26:09.168Z,35.80
